Time;durP1;ratioP1;P1;durP2;ratioP2;P2;SDS_P1;SDS_P2;PMS_P1;PMS_P2;Temp;Humidity;BMP_temperature;BMP_pressure;BME280_temperature;BME280_humidity;BME280_pressure;Samples;Min_cycle;Max_cycle;Signal;HPM_P1;HPM_P2
2023/01/27 00:03:00;;;;;;;;;;;5.90;85.30;;;;;;9177620;19;20295;-68
2023/01/27 00:06:10;;;;;;;;;;;5.90;85.30;;;;;;9179589;19;19930;-68
2023/01/27 00:09:14;;;;;;;;;;;5.90;85.30;;;;;;9179211;19;19915;-67
2023/01/27 00:15:43;;;;;;;;;;;5.90;85.40;;;;;;9179114;19;20352;-68
2023/01/27 00:18:48;;;;;;;;;;;5.90;85.40;;;;;;9180716;19;19919;-68
2023/01/27 00:25:13;;;;;;;;;;;5.80;85.30;;;;;;9183287;19;19919;-68
2023/01/27 00:28:21;;;;;;;;;;;5.80;85.40;;;;;;9179348;19;19915;-68
2023/01/27 00:34:44;;;;;;;;;;;5.90;85.40;;;;;;9183045;19;19955;-68
2023/01/27 00:37:52;;;;;;;;;;;5.80;85.30;;;;;;9179580;19;19923;-68
2023/01/27 00:44:15;;;;;;;;;;;5.80;85.30;;;;;;9182331;19;19974;-68
2023/01/27 00:47:19;;;;;;;;;;;5.80;85.90;;;;;;9180669;19;20443;-68
2023/01/27 00:50:24;;;;;;;;;;;5.80;85.30;;;;;;9182351;19;19919;-68
2023/01/27 00:53:31;;;;;;;;;;;5.70;85.30;;;;;;9182537;19;19922;-68
2023/01/27 00:56:37;;;;;;;;;;;5.70;85.30;;;;;;9181839;19;19990;-68
2023/01/27 00:59:40;;;;;;;;;;;5.70;85.40;;;;;;9177804;19;20005;-69
2023/01/27 01:02:46;;;;;;;;;;;5.70;85.30;;;;;;9182150;19;19947;-67
2023/01/27 01:05:50;;;;;;;;;;;5.60;85.30;;;;;;9182346;19;20355;-69
2023/01/27 01:08:58;;;;;;;;;;;5.60;85.30;;;;;;9180343;19;19919;-67
2023/01/27 01:12:02;;;;;;;;;;;5.60;85.30;;;;;;9178928;19;19937;-69
2023/01/27 01:15:09;;;;;;;;;;;5.60;85.40;;;;;;9179877;19;19922;-67
2023/01/27 01:18:13;;;;;;;;;;;5.60;85.40;;;;;;9179103;19;19929;-67
2023/01/27 01:21:18;;;;;;;;;;;5.50;85.30;;;;;;9181987;19;20487;-67
2023/01/27 01:24:24;;;;;;;;;;;5.50;85.40;;;;;;9179410;19;19920;-68
2023/01/27 01:27:30;;;;;;;;;;;5.60;85.40;;;;;;9180404;19;19922;-68
2023/01/27 01:30:35;;;;;;;;;;;5.50;85.30;;;;;;9181275;19;19926;-69
2023/01/27 01:33:40;;;;;;;;;;;5.60;85.30;;;;;;9181302;19;19918;-69
2023/01/27 01:36:44;;;;;;;;;;;5.50;85.30;;;;;;9180492;19;19915;-68
2023/01/27 01:39:51;;;;;;;;;;;5.50;85.30;;;;;;9180106;19;20364;-68
2023/01/27 01:42:56;;;;;;;;;;;5.50;85.30;;;;;;9180948;19;20611;-68
2023/01/27 01:46:03;;;;;;;;;;;5.50;85.40;;;;;;9180803;19;19915;-68
2023/01/27 01:49:06;;;;;;;;;;;5.50;85.40;;;;;;9178573;19;19929;-68
2023/01/27 01:52:15;;;;;;;;;;;5.50;85.40;;;;;;9180053;19;19922;-68
2023/01/27 01:55:21;;;;;;;;;;;5.50;85.40;;;;;;9180702;19;19911;-68
2023/01/27 01:58:27;;;;;;;;;;;5.50;85.40;;;;;;9173709;19;19919;-68
2023/01/27 02:01:31;;;;;;;;;;;5.50;85.40;;;;;;9181249;19;20324;-68
2023/01/27 02:04:37;;;;;;;;;;;5.50;85.40;;;;;;9181169;19;19923;-69
2023/01/27 02:07:45;;;;;;;;;;;5.50;85.40;;;;;;9181882;19;19923;-68
2023/01/27 02:10:56;;;;;;;;;;;5.40;85.30;;;;;;9180346;19;19921;-68
2023/01/27 02:14:01;;;;;;;;;;;5.40;85.30;;;;;;9181622;19;19932;-68
2023/01/27 02:17:07;;;;;;;;;;;5.40;85.30;;;;;;9177936;19;19938;-68
2023/01/27 02:20:16;;;;;;;;;;;5.40;85.30;;;;;;9180800;19;20354;-68
2023/01/27 02:23:28;;;;;;;;;;;5.50;85.40;;;;;;9175860;19;20442;-68
2023/01/27 02:26:35;;;;;;;;;;;5.40;85.30;;;;;;9179355;19;20395;-68
2023/01/27 02:29:41;;;;;;;;;;;5.50;85.40;;;;;;9176941;19;19926;-68
2023/01/27 02:32:45;;;;;;;;;;;5.50;85.40;;;;;;9179065;19;19929;-68
2023/01/27 02:35:57;;;;;;;;;;;5.50;85.40;;;;;;9179180;19;19929;-68
2023/01/27 02:39:02;;;;;;;;;;;5.50;85.40;;;;;;9174568;19;19923;-68
2023/01/27 02:42:11;;;;;;;;;;;5.50;85.40;;;;;;9177327;19;19926;-68
2023/01/27 02:45:14;;;;;;;;;;;5.50;85.30;;;;;;9178942;19;19936;-68
2023/01/27 02:48:21;;;;;;;;;;;5.50;85.30;;;;;;9177566;19;20252;-69
2023/01/27 02:51:24;;;;;;;;;;;5.50;85.30;;;;;;9177367;19;19974;-68
2023/01/27 02:54:31;;;;;;;;;;;5.50;85.40;;;;;;9177349;19;19950;-69
2023/01/27 02:57:36;;;;;;;;;;;5.50;85.30;;;;;;9175112;19;19923;-69
2023/01/27 03:01:02;;;;;;;;;;;5.50;85.30;;;;;;9176331;19;19923;-67
2023/01/27 03:04:07;;;;;;;;;;;5.50;85.30;;;;;;9177348;19;19926;-68
2023/01/27 03:07:13;;;;;;;;;;;5.50;85.30;;;;;;9175511;19;19942;-68
2023/01/27 03:10:17;;;;;;;;;;;5.50;85.30;;;;;;9174475;19;20396;-68
2023/01/27 03:13:25;;;;;;;;;;;5.50;85.30;;;;;;9177404;19;19929;-67
2023/01/27 03:19:52;;;;;;;;;;;5.50;85.30;;;;;;9176006;19;19919;-68
2023/01/27 03:22:55;;;;;;;;;;;5.50;85.30;;;;;;9175225;19;19919;-68
2023/01/27 03:26:06;;;;;;;;;;;5.50;85.30;;;;;;9175073;19;19922;-68
2023/01/27 03:32:34;;;;;;;;;;;5.50;85.40;;;;;;9175141;19;19926;-68
2023/01/27 03:46:21;;;;;;;;;;;5.60;85.40;;;;;;9174795;19;20260;-68
2023/01/27 03:49:25;;;;;;;;;;;5.60;85.30;;;;;;9176042;19;19930;-67
2023/01/27 03:52:30;;;;;;;;;;;5.60;85.30;;;;;;9175974;19;19937;-67
2023/01/27 03:55:35;;;;;;;;;;;5.60;85.30;;;;;;9176000;19;19918;-68
2023/01/27 03:58:41;;;;;;;;;;;5.60;85.30;;;;;;9169683;19;19923;-67
2023/01/27 04:01:46;;;;;;;;;;;5.70;85.30;;;;;;9175920;19;20410;-67
2023/01/27 04:08:09;;;;;;;;;;;5.70;85.30;;;;;;9184032;19;19918;-67
2023/01/27 04:14:36;;;;;;;;;;;5.60;85.20;;;;;;9181892;19;19925;-67
2023/01/27 04:17:44;;;;;;;;;;;5.60;85.20;;;;;;9180660;19;19922;-69
2023/01/27 04:20:47;;;;;;;;;;;5.60;85.20;;;;;;9183409;19;19959;-69
2023/01/27 04:23:53;;;;;;;;;;;5.70;85.30;;;;;;9183494;19;19927;-69
2023/01/27 04:26:57;;;;;;;;;;;5.70;85.30;;;;;;9183384;19;19922;-68
2023/01/27 04:30:03;;;;;;;;;;;5.70;85.20;;;;;;9183338;19;19922;-68
2023/01/27 04:33:09;;;;;;;;;;;5.70;85.20;;;;;;9183172;19;19922;-68
2023/01/27 04:36:15;;;;;;;;;;;5.70;85.20;;;;;;9183417;19;19919;-68
2023/01/27 04:39:19;;;;;;;;;;;5.70;85.20;;;;;;9179095;19;19923;-68
2023/01/27 04:42:25;;;;;;;;;;;5.60;85.20;;;;;;9183944;19;20340;-68
2023/01/27 04:45:28;;;;;;;;;;;5.60;85.20;;;;;;9183522;19;19925;-68
2023/01/27 04:48:36;;;;;;;;;;;5.60;85.20;;;;;;9181096;19;19918;-68
2023/01/27 04:51:40;;;;;;;;;;;5.60;85.10;;;;;;9182717;19;20307;-68
2023/01/27 04:54:46;;;;;;;;;;;5.60;85.10;;;;;;9181311;19;20340;-68
2023/01/27 04:57:50;;;;;;;;;;;5.60;85.10;;;;;;9179259;19;20259;-68
2023/01/27 05:00:56;;;;;;;;;;;5.60;85.10;;;;;;9182236;19;19923;-69
2023/01/27 05:04:01;;;;;;;;;;;5.60;85.10;;;;;;9180575;19;19919;-68
2023/01/27 05:07:07;;;;;;;;;;;5.60;85.10;;;;;;9182803;19;19934;-68
2023/01/27 05:10:11;;;;;;;;;;;5.50;85.30;;;;;;9180618;19;19922;-68
2023/01/27 05:13:17;;;;;;;;;;;5.50;85.10;;;;;;9182146;19;20589;-68
2023/01/27 05:16:21;;;;;;;;;;;5.50;85.10;;;;;;9180408;19;19919;-68
2023/01/27 05:19:30;;;;;;;;;;;5.40;85.10;;;;;;9178569;19;19919;-68
2023/01/27 05:22:34;;;;;;;;;;;5.40;85.10;;;;;;9181134;19;19915;-68
2023/01/27 05:25:42;;;;;;;;;;;5.40;85.20;;;;;;9181660;19;19930;-68
2023/01/27 05:28:46;;;;;;;;;;;5.40;85.20;;;;;;9181392;19;19930;-68
2023/01/27 05:31:52;;;;;;;;;;;5.40;85.20;;;;;;9181275;19;19934;-68
2023/01/27 05:34:57;;;;;;;;;;;5.40;85.20;;;;;;9181765;19;20345;-68
2023/01/27 05:38:03;;;;;;;;;;;5.40;85.20;;;;;;9179574;19;19915;-68
2023/01/27 05:41:08;;;;;;;;;;;5.30;85.20;;;;;;9181295;19;19915;-68
2023/01/27 05:44:13;;;;;;;;;;;5.30;85.20;;;;;;9180927;19;19922;-68
2023/01/27 05:47:17;;;;;;;;;;;5.30;85.20;;;;;;9180827;19;19929;-66
2023/01/27 05:50:25;;;;;;;;;;;5.30;85.20;;;;;;9178967;19;19952;-68
2023/01/27 05:53:28;;;;;;;;;;;5.30;85.20;;;;;;9180375;19;19937;-67
2023/01/27 05:56:34;;;;;;;;;;;5.30;85.20;;;;;;9180869;19;20390;-68
2023/01/27 05:59:38;;;;;;;;;;;5.20;85.20;;;;;;9172788;19;20321;-69
2023/01/27 06:02:43;;;;;;;;;;;5.20;85.20;;;;;;9180585;19;19930;-69
2023/01/27 06:05:53;;;;;;;;;;;5.20;85.20;;;;;;9176290;19;19927;-67
2023/01/27 06:08:59;;;;;;;;;;;5.20;85.10;;;;;;9176614;19;20271;-68
2023/01/27 06:12:02;;;;;;;;;;;5.10;85.10;;;;;;9170681;19;19929;-67
2023/01/27 06:15:09;;;;;;;;;;;5.10;85.10;;;;;;9172212;19;20256;-68
2023/01/27 06:18:13;;;;;;;;;;;5.10;85.10;;;;;;9172168;19;19914;-68
2023/01/27 06:21:20;;;;;;;;;;;5.10;85.20;;;;;;9173231;19;19914;-68
2023/01/27 06:24:24;;;;;;;;;;;5.10;85.20;;;;;;9172271;19;19927;-67
2023/01/27 06:27:30;;;;;;;;;;;5.00;85.20;;;;;;9172868;19;19926;-68
2023/01/27 06:30:34;;;;;;;;;;;5.00;85.20;;;;;;9179427;19;19915;-68
2023/01/27 06:33:40;;;;;;;;;;;5.00;85.20;;;;;;9179600;19;19926;-68
2023/01/27 06:36:47;;;;;;;;;;;5.00;85.20;;;;;;9177403;19;19925;-68
2023/01/27 06:39:53;;;;;;;;;;;5.00;85.20;;;;;;9175317;19;19922;-68
2023/01/27 06:42:56;;;;;;;;;;;5.00;85.20;;;;;;9179444;19;19923;-68
2023/01/27 06:46:02;;;;;;;;;;;5.00;85.20;;;;;;9178937;19;19915;-68
2023/01/27 06:49:09;;;;;;;;;;;4.90;85.20;;;;;;9178348;19;19922;-67
2023/01/27 06:52:16;;;;;;;;;;;4.90;85.20;;;;;;9178895;19;20634;-68
2023/01/27 06:55:20;;;;;;;;;;;5.00;85.30;;;;;;9178311;19;20577;-68
2023/01/27 06:58:26;;;;;;;;;;;4.90;85.20;;;;;;9172829;19;19919;-68
2023/01/27 07:01:30;;;;;;;;;;;5.00;85.20;;;;;;9178107;19;19919;-67
2023/01/27 07:04:36;;;;;;;;;;;4.90;85.20;;;;;;9173311;19;19919;-67
2023/01/27 07:07:41;;;;;;;;;;;4.90;85.20;;;;;;9177908;19;19922;-67
2023/01/27 07:10:47;;;;;;;;;;;4.90;85.20;;;;;;9176109;19;19951;-67
2023/01/27 07:13:51;;;;;;;;;;;4.90;85.30;;;;;;9178064;19;20014;-67
2023/01/27 07:16:56;;;;;;;;;;;4.90;85.30;;;;;;9177662;19;19915;-67
2023/01/27 07:20:00;;;;;;;;;;;4.90;85.30;;;;;;9174348;19;19919;-67
2023/01/27 07:23:07;;;;;;;;;;;4.90;85.20;;;;;;9177674;19;19930;-67
2023/01/27 07:26:11;;;;;;;;;;;4.90;85.30;;;;;;9177469;19;19911;-68
2023/01/27 07:29:29;;;;;;;;;;;4.90;85.30;;;;;;9177583;19;20621;-67
2023/01/27 07:32:33;;;;;;;;;;;4.90;85.20;;;;;;9177362;19;19919;-67
2023/01/27 07:35:39;;;;;;;;;;;4.90;85.30;;;;;;9177079;19;19930;-68
2023/01/27 07:38:45;;;;;;;;;;;4.90;85.20;;;;;;9178734;19;19914;-67
2023/01/27 07:41:51;;;;;;;;;;;4.90;85.20;;;;;;9184901;19;19922;-66
2023/01/27 07:44:55;;;;;;;;;;;4.90;85.20;;;;;;9185356;19;19930;-68
2023/01/27 07:48:01;;;;;;;;;;;4.90;85.20;;;;;;9184955;19;19918;-67
2023/01/27 07:51:04;;;;;;;;;;;4.90;85.20;;;;;;9184817;19;19979;-67
2023/01/27 07:54:12;;;;;;;;;;;4.90;85.20;;;;;;9184802;19;19923;-67
2023/01/27 07:57:16;;;;;;;;;;;5.00;85.20;;;;;;9184453;19;19918;-67
2023/01/27 08:00:22;;;;;;;;;;;4.90;85.30;;;;;;9178057;19;20434;-67
2023/01/27 08:03:26;;;;;;;;;;;4.90;85.20;;;;;;9179646;19;20346;-67
2023/01/27 08:06:32;;;;;;;;;;;4.90;85.20;;;;;;9177092;19;19927;-67
2023/01/27 08:09:38;;;;;;;;;;;5.00;85.20;;;;;;9178467;19;19927;-67
2023/01/27 08:12:44;;;;;;;;;;;5.00;85.30;;;;;;9181396;19;20240;-67
2023/01/27 08:15:47;;;;;;;;;;;5.00;85.20;;;;;;9181165;19;19922;-66
2023/01/27 08:18:53;;;;;;;;;;;5.00;85.20;;;;;;9180902;19;20364;-61
2023/01/27 08:21:57;;;;;;;;;;;5.00;85.20;;;;;;9183008;19;20045;-62
2023/01/27 08:25:05;;;;;;;;;;;5.00;85.20;;;;;;9183648;19;20320;-62
2023/01/27 08:28:08;;;;;;;;;;;5.00;85.20;;;;;;9183495;19;19914;-64
2023/01/27 08:31:15;;;;;;;;;;;5.00;85.20;;;;;;9183238;19;19915;-61
2023/01/27 08:34:19;;;;;;;;;;;5.00;85.20;;;;;;9183289;19;19915;-64
2023/01/27 08:37:24;;;;;;;;;;;5.00;85.20;;;;;;9183255;19;20340;-63
2023/01/27 08:40:30;;;;;;;;;;;5.00;85.20;;;;;;9183718;19;20324;-63
2023/01/27 08:43:36;;;;;;;;;;;5.00;85.20;;;;;;9183047;19;19926;-62
2023/01/27 08:46:39;;;;;;;;;;;5.00;85.30;;;;;;9182487;19;20320;-64
2023/01/27 08:49:46;;;;;;;;;;;5.00;85.20;;;;;;9180880;19;19919;-62
2023/01/27 08:52:50;;;;;;;;;;;5.00;85.30;;;;;;9182658;19;19930;-61
2023/01/27 08:55:59;;;;;;;;;;;5.00;85.20;;;;;;9181320;19;19915;-63
2023/01/27 08:59:02;;;;;;;;;;;5.00;85.20;;;;;;9176416;19;19927;-62
2023/01/27 09:02:08;;;;;;;;;;;5.10;85.30;;;;;;9179908;19;20268;-62
2023/01/27 09:05:12;;;;;;;;;;;5.10;85.30;;;;;;9182121;19;19955;-64
2023/01/27 09:08:17;;;;;;;;;;;5.10;85.30;;;;;;9182743;19;19929;-65
2023/01/27 09:11:23;;;;;;;;;;;5.10;85.30;;;;;;9180053;19;20367;-62
2023/01/27 09:14:29;;;;;;;;;;;5.10;85.30;;;;;;9182793;19;19923;-62
2023/01/27 09:17:33;;;;;;;;;;;5.10;85.30;;;;;;9180167;19;19923;-65
2023/01/27 09:20:38;;;;;;;;;;;5.10;85.30;;;;;;9172468;19;19919;-62
2023/01/27 09:23:42;;;;;;;;;;;5.10;85.30;;;;;;9176099;19;20340;-63
2023/01/27 09:26:50;;;;;;;;;;;5.10;85.30;;;;;;9175516;19;19919;-64
2023/01/27 09:29:53;;;;;;;;;;;5.10;85.30;;;;;;9174222;19;19919;-63
2023/01/27 09:33:00;;;;;;;;;;;5.10;85.30;;;;;;9175478;19;19919;-67
2023/01/27 09:36:06;;;;;;;;;;;5.10;85.30;;;;;;9173195;19;19922;-63
2023/01/27 09:39:12;;;;;;;;;;;5.20;85.40;;;;;;9172542;19;20530;-65
2023/01/27 09:42:35;;;;;;;;;;;5.20;85.30;;;;;;9174632;19;19918;-63
2023/01/27 09:45:47;;;;;;;;;;;5.20;85.30;;;;;;9174412;19;19910;-62
2023/01/27 09:49:06;;;;;;;;;;;5.30;85.30;;;;;;9174788;19;19926;-64
2023/01/27 09:52:19;;;;;;;;;;;5.30;85.30;;;;;;9172238;19;19923;-63
2023/01/27 09:55:26;;;;;;;;;;;5.40;85.30;;;;;;9173544;19;20019;-64
2023/01/27 09:58:40;;;;;;;;;;;5.40;85.30;;;;;;9169972;19;19926;-65
2023/01/27 10:01:49;;;;;;;;;;;5.40;85.30;;;;;;9173952;19;19949;-63
2023/01/27 10:05:10;;;;;;;;;;;5.50;85.30;;;;;;9171362;19;19923;-64
2023/01/27 10:08:28;;;;;;;;;;;5.50;85.40;;;;;;9173336;19;20279;-64
2023/01/27 10:11:39;;;;;;;;;;;5.60;85.30;;;;;;9171948;19;20332;-64
2023/01/27 10:14:49;;;;;;;;;;;5.60;85.30;;;;;;9174831;19;19918;-64
2023/01/27 10:18:01;;;;;;;;;;;5.70;85.40;;;;;;9172795;19;19919;-65
2023/01/27 10:21:08;;;;;;;;;;;5.70;85.30;;;;;;9174416;19;19985;-63
2023/01/27 10:24:19;;;;;;;;;;;5.70;85.20;;;;;;9174015;19;19929;-63
2023/01/27 10:27:24;;;;;;;;;;;5.80;85.30;;;;;;9177544;19;19918;-62
2023/01/27 10:30:33;;;;;;;;;;;5.80;85.30;;;;;;9180015;19;19927;-63
2023/01/27 10:33:45;;;;;;;;;;;5.80;85.20;;;;;;9178954;19;19930;-62
2023/01/27 10:36:56;;;;;;;;;;;5.90;85.20;;;;;;9179732;19;19934;-63
2023/01/27 10:40:03;;;;;;;;;;;5.90;85.30;;;;;;9174941;19;19922;-62
2023/01/27 10:43:11;;;;;;;;;;;5.90;85.30;;;;;;9178744;19;19941;-63
2023/01/27 10:46:24;;;;;;;;;;;5.90;85.20;;;;;;9179462;19;19918;-65
2023/01/27 10:49:32;;;;;;;;;;;6.00;85.30;;;;;;9175964;19;20329;-64
2023/01/27 10:52:39;;;;;;;;;;;6.00;85.20;;;;;;9178722;19;19955;-63
2023/01/27 10:55:47;;;;;;;;;;;6.10;85.30;;;;;;9178569;19;19915;-65
2023/01/27 10:58:54;;;;;;;;;;;6.10;85.20;;;;;;9173213;19;19918;-64
2023/01/27 11:02:04;;;;;;;;;;;6.10;85.10;;;;;;9179125;19;19926;-64
2023/01/27 11:05:11;;;;;;;;;;;6.10;85.10;;;;;;9178452;19;19925;-62
2023/01/27 11:08:18;;;;;;;;;;;6.10;85.00;;;;;;9178464;19;20607;-63
2023/01/27 11:14:45;;;;;;;;;;;6.10;85.10;;;;;;9176217;19;19923;-62
2023/01/27 11:17:53;;;;;;;;;;;6.10;85.10;;;;;;9176517;19;20351;-66
2023/01/27 11:21:01;;;;;;;;;;;6.20;85.10;;;;;;9176668;19;19930;-64
2023/01/27 11:24:12;;;;;;;;;;;6.10;85.00;;;;;;9176465;19;19930;-64
2023/01/27 11:27:23;;;;;;;;;;;6.20;85.00;;;;;;9176317;19;19937;-63
2023/01/27 11:30:31;;;;;;;;;;;6.20;85.00;;;;;;9177109;19;20336;-63
2023/01/27 11:33:46;;;;;;;;;;;6.10;85.00;;;;;;9177597;19;19915;-64
2023/01/27 11:36:50;;;;;;;;;;;6.20;85.00;;;;;;9175815;19;19923;-65
2023/01/27 11:39:56;;;;;;;;;;;6.10;84.90;;;;;;9173203;19;19926;-62
2023/01/27 11:43:00;;;;;;;;;;;6.10;84.90;;;;;;9176908;19;20240;-66
2023/01/27 11:46:08;;;;;;;;;;;6.10;84.90;;;;;;9176735;19;19922;-64
2023/01/27 11:49:16;;;;;;;;;;;6.10;84.90;;;;;;9175425;19;19919;-61
2023/01/27 11:52:25;;;;;;;;;;;6.10;85.00;;;;;;9174542;19;20335;-62
2023/01/27 11:55:34;;;;;;;;;;;6.10;85.00;;;;;;9167390;19;19915;-63
2023/01/27 11:58:41;;;;;;;;;;;6.10;85.00;;;;;;9165682;19;19926;-62
2023/01/27 12:01:48;;;;;;;;;;;6.10;84.90;;;;;;9171076;19;19950;-65
2023/01/27 12:05:00;;;;;;;;;;;6.10;85.00;;;;;;9166593;19;19923;-63
2023/01/27 12:08:05;;;;;;;;;;;6.10;85.00;;;;;;9166570;19;19978;-64
2023/01/27 12:11:23;;;;;;;;;;;6.10;85.00;;;;;;9165571;19;19919;-61
2023/01/27 12:14:27;;;;;;;;;;;6.10;85.00;;;;;;9165423;19;19926;-64
2023/01/27 12:17:36;;;;;;;;;;;6.00;84.90;;;;;;9167451;19;19926;-62
2023/01/27 12:20:42;;;;;;;;;;;6.00;84.90;;;;;;9165805;19;20340;-63
2023/01/27 12:23:49;;;;;;;;;;;6.10;85.60;;;;;;9169064;19;19926;-62
2023/01/27 12:26:54;;;;;;;;;;;6.00;85.00;;;;;;9172991;19;19926;-64
2023/01/27 12:30:02;;;;;;;;;;;6.00;84.90;;;;;;9175097;19;19943;-62
2023/01/27 12:33:12;;;;;;;;;;;6.00;85.00;;;;;;9174519;19;20038;-63
2023/01/27 12:36:21;;;;;;;;;;;6.00;85.60;;;;;;9166010;19;19972;-66
2023/01/27 12:39:28;;;;;;;;;;;6.00;85.00;;;;;;9166610;19;20378;-66
2023/01/27 12:42:35;;;;;;;;;;;6.00;85.00;;;;;;9171766;19;19922;-63
2023/01/27 12:45:39;;;;;;;;;;;6.00;84.90;;;;;;9175178;19;19923;-64
2023/01/27 12:48:48;;;;;;;;;;;6.00;85.50;;;;;;9173385;19;19915;-62
2023/01/27 12:51:55;;;;;;;;;;;6.00;84.90;;;;;;9175392;19;19934;-63
2023/01/27 12:55:03;;;;;;;;;;;6.00;84.90;;;;;;9175262;19;20268;-63
2023/01/27 12:58:07;;;;;;;;;;;6.10;84.90;;;;;;9171488;19;20025;-65
2023/01/27 13:01:27;;;;;;;;;;;6.00;84.90;;;;;;9176828;19;19923;-65
2023/01/27 13:04:31;;;;;;;;;;;6.00;84.90;;;;;;9175850;19;19927;-65
2023/01/27 13:07:40;;;;;;;;;;;6.10;85.00;;;;;;9174474;19;20352;-64
2023/01/27 13:10:50;;;;;;;;;;;6.10;85.00;;;;;;9173826;19;19946;-64
2023/01/27 13:13:58;;;;;;;;;;;6.10;85.00;;;;;;9174864;19;19911;-66
2023/01/27 13:17:02;;;;;;;;;;;6.10;85.00;;;;;;9175309;19;19994;-62
2023/01/27 13:20:16;;;;;;;;;;;6.10;85.00;;;;;;9173883;19;19919;-66
2023/01/27 13:23:23;;;;;;;;;;;6.10;84.90;;;;;;9173607;19;20294;-62
2023/01/27 13:26:30;;;;;;;;;;;6.10;84.90;;;;;;9173442;19;19927;-65
2023/01/27 13:29:35;;;;;;;;;;;6.20;84.90;;;;;;9173270;19;19942;-65
2023/01/27 13:32:42;;;;;;;;;;;6.20;85.00;;;;;;9172346;19;19923;-65
2023/01/27 13:35:50;;;;;;;;;;;6.20;84.90;;;;;;9171620;19;19927;-65
2023/01/27 13:39:01;;;;;;;;;;;6.20;84.90;;;;;;9172155;19;19919;-63
2023/01/27 13:42:11;;;;;;;;;;;6.20;84.90;;;;;;9172042;19;20538;-65
2023/01/27 13:45:19;;;;;;;;;;;6.20;84.80;;;;;;9174935;19;20351;-64
2023/01/27 13:48:25;;;;;;;;;;;6.20;84.80;;;;;;9177849;19;19942;-63
2023/01/27 13:51:31;;;;;;;;;;;6.20;84.80;;;;;;9179801;19;19922;-63
2023/01/27 13:54:37;;;;;;;;;;;6.20;84.80;;;;;;9179403;19;19927;-62
2023/01/27 13:57:49;;;;;;;;;;;6.20;84.80;;;;;;9177791;19;19930;-62
2023/01/27 14:00:57;;;;;;;;;;;6.20;84.80;;;;;;9175927;19;19927;-61
2023/01/27 14:04:21;;;;;;;;;;;6.20;84.80;;;;;;9180746;19;19918;-63
2023/01/27 14:07:26;;;;;;;;;;;6.20;84.80;;;;;;9178331;19;19922;-64
2023/01/27 14:10:38;;;;;;;;;;;6.20;84.80;;;;;;9178740;19;19922;-63
2023/01/27 14:13:48;;;;;;;;;;;6.20;84.80;;;;;;9178039;19;19938;-63
2023/01/27 14:17:00;;;;;;;;;;;6.20;84.80;;;;;;9180019;19;19925;-62
2023/01/27 14:20:27;;;;;;;;;;;6.20;84.70;;;;;;9177350;19;19926;-61
2023/01/27 14:23:38;;;;;;;;;;;6.10;84.70;;;;;;9178679;19;20260;-64
2023/01/27 14:26:49;;;;;;;;;;;6.10;84.70;;;;;;9180143;19;19962;-63
2023/01/27 14:29:59;;;;;;;;;;;6.10;84.70;;;;;;9179727;19;19937;-60
2023/01/27 14:33:07;;;;;;;;;;;6.10;84.70;;;;;;9178372;19;19921;-62
2023/01/27 14:36:17;;;;;;;;;;;6.10;84.70;;;;;;9179684;19;19938;-63
2023/01/27 14:39:24;;;;;;;;;;;6.10;84.70;;;;;;9178585;19;19919;-62
2023/01/27 14:42:35;;;;;;;;;;;6.10;84.60;;;;;;9180624;19;19941;-66
2023/01/27 14:45:39;;;;;;;;;;;6.10;84.60;;;;;;9177821;19;19937;-63
2023/01/27 14:48:53;;;;;;;;;;;6.10;84.70;;;;;;9177299;19;20331;-63
2023/01/27 14:51:59;;;;;;;;;;;6.10;84.70;;;;;;9179271;19;19918;-66
2023/01/27 14:55:15;;;;;;;;;;;6.10;84.70;;;;;;9178343;19;19934;-66
2023/01/27 14:58:36;;;;;;;;;;;6.00;84.60;;;;;;9175731;19;19922;-62
2023/01/27 15:01:45;;;;;;;;;;;6.00;85.20;;;;;;9178951;19;19922;-64
2023/01/27 15:04:53;;;;;;;;;;;6.00;84.60;;;;;;9178685;19;19951;-63
2023/01/27 15:08:01;;;;;;;;;;;6.00;84.60;;;;;;9177755;19;19926;-63
2023/01/27 15:11:18;;;;;;;;;;;6.00;84.60;;;;;;9176261;19;20317;-62
2023/01/27 15:14:41;;;;;;;;;;;6.00;84.50;;;;;;9177914;19;19922;-62
2023/01/27 15:17:56;;;;;;;;;;;6.00;84.50;;;;;;9176656;19;19922;-64
2023/01/27 15:21:08;;;;;;;;;;;6.00;84.50;;;;;;9174525;19;20280;-62
2023/01/27 15:24:35;;;;;;;;;;;6.00;84.50;;;;;;9177538;19;19915;-62
2023/01/27 15:27:41;;;;;;;;;;;6.00;84.50;;;;;;9175867;19;19936;-66
2023/01/27 15:31:00;;;;;;;;;;;6.00;84.40;;;;;;9172116;19;19926;-62
2023/01/27 15:34:20;;;;;;;;;;;6.00;84.40;;;;;;9176832;19;19922;-62
2023/01/27 15:37:27;;;;;;;;;;;6.00;84.40;;;;;;9176880;19;20419;-65
2023/01/27 15:40:55;;;;;;;;;;;6.00;84.40;;;;;;9174782;19;19919;-64
2023/01/27 15:44:15;;;;;;;;;;;5.90;84.50;;;;;;9176743;19;19935;-65
2023/01/27 15:47:22;;;;;;;;;;;6.00;84.50;;;;;;9175944;19;20319;-62
2023/01/27 15:50:30;;;;;;;;;;;5.90;84.40;;;;;;9173938;19;19929;-63
2023/01/27 15:53:37;;;;;;;;;;;5.90;84.40;;;;;;9163545;19;19915;-68
2023/01/27 15:56:42;;;;;;;;;;;5.90;84.40;;;;;;9159497;19;19919;-64
2023/01/27 15:59:49;;;;;;;;;;;5.90;84.40;;;;;;9157749;19;19919;-64
2023/01/27 16:03:03;;;;;;;;;;;5.90;84.40;;;;;;9172241;19;19938;-64
2023/01/27 16:06:15;;;;;;;;;;;5.80;84.40;;;;;;9169654;19;19919;-66
2023/01/27 16:09:22;;;;;;;;;;;5.80;84.40;;;;;;9166946;19;19930;-64
2023/01/27 16:12:32;;;;;;;;;;;5.80;84.40;;;;;;9166872;19;19923;-62
2023/01/27 16:15:37;;;;;;;;;;;5.80;84.50;;;;;;9169227;19;19923;-64
2023/01/27 16:18:44;;;;;;;;;;;5.80;84.40;;;;;;9172207;19;19919;-65
2023/01/27 16:21:53;;;;;;;;;;;5.80;84.40;;;;;;9166865;19;19947;-65
2023/01/27 16:25:02;;;;;;;;;;;5.70;84.30;;;;;;9165803;19;19922;-63
2023/01/27 16:28:08;;;;;;;;;;;5.80;84.40;;;;;;9175084;19;19957;-64
2023/01/27 16:31:15;;;;;;;;;;;5.70;84.30;;;;;;9171576;19;19919;-66
2023/01/27 16:34:22;;;;;;;;;;;5.70;84.30;;;;;;9174983;19;19939;-63
2023/01/27 16:37:31;;;;;;;;;;;5.70;84.30;;;;;;9173501;19;19915;-63
2023/01/27 16:40:35;;;;;;;;;;;5.60;84.20;;;;;;9170893;19;19926;-64
2023/01/27 16:43:43;;;;;;;;;;;5.60;84.30;;;;;;9173446;19;19925;-64
2023/01/27 16:46:49;;;;;;;;;;;5.60;84.30;;;;;;9175025;19;20030;-62
2023/01/27 16:49:55;;;;;;;;;;;5.60;84.40;;;;;;9174912;19;19919;-67
2023/01/27 16:53:01;;;;;;;;;;;5.60;84.30;;;;;;9167980;19;19915;-62
2023/01/27 16:56:08;;;;;;;;;;;5.60;84.30;;;;;;9165981;19;19922;-62
2023/01/27 16:59:25;;;;;;;;;;;5.50;84.20;;;;;;9160122;19;19930;-62
2023/01/27 17:02:31;;;;;;;;;;;5.50;84.30;;;;;;9171788;19;19919;-66
2023/01/27 17:05:35;;;;;;;;;;;5.50;84.30;;;;;;9173015;19;20402;-64
2023/01/27 17:08:46;;;;;;;;;;;5.50;84.20;;;;;;9174002;19;20317;-63
2023/01/27 17:11:49;;;;;;;;;;;5.50;84.90;;;;;;9168681;19;20320;-62
2023/01/27 17:14:55;;;;;;;;;;;5.50;84.30;;;;;;9173454;19;19939;-64
2023/01/27 17:17:59;;;;;;;;;;;5.50;84.20;;;;;;9171846;19;19934;-64
2023/01/27 17:21:05;;;;;;;;;;;5.50;84.20;;;;;;9170692;19;20654;-63
2023/01/27 17:24:15;;;;;;;;;;;5.50;84.20;;;;;;9173742;19;19919;-62
2023/01/27 17:27:24;;;;;;;;;;;5.40;84.20;;;;;;9173911;19;20350;-66
2023/01/27 17:30:33;;;;;;;;;;;5.40;84.20;;;;;;9171741;19;19929;-64
2023/01/27 17:33:39;;;;;;;;;;;5.40;84.20;;;;;;9171352;19;20344;-62
2023/01/27 17:37:05;;;;;;;;;;;5.40;84.20;;;;;;9172864;19;19938;-64
2023/01/27 17:40:16;;;;;;;;;;;5.40;84.30;;;;;;9171243;19;19915;-63
2023/01/27 17:43:29;;;;;;;;;;;5.40;84.20;;;;;;9170315;19;20350;-64
2023/01/27 17:46:35;;;;;;;;;;;5.40;84.20;;;;;;9173898;19;19930;-62
2023/01/27 17:49:39;;;;;;;;;;;5.30;84.10;;;;;;9170058;19;20711;-65
2023/01/27 17:52:45;;;;;;;;;;;5.30;84.10;;;;;;9169712;19;20331;-62
2023/01/27 17:55:58;;;;;;;;;;;5.30;84.10;;;;;;9170201;19;19940;-64
2023/01/27 17:59:06;;;;;;;;;;;5.30;84.20;;;;;;9167026;19;19923;-63
2023/01/27 18:02:15;;;;;;;;;;;5.30;84.10;;;;;;9171851;19;19922;-62
2023/01/27 18:05:21;;;;;;;;;;;5.30;84.20;;;;;;9171608;19;19923;-66
2023/01/27 18:08:25;;;;;;;;;;;5.30;84.10;;;;;;9169918;19;19922;-64
2023/01/27 18:11:34;;;;;;;;;;;5.30;84.20;;;;;;9169108;19;19918;-63
2023/01/27 18:14:38;;;;;;;;;;;5.30;84.10;;;;;;9165314;19;20360;-66
2023/01/27 18:17:43;;;;;;;;;;;5.30;84.10;;;;;;9169308;19;19930;-64
2023/01/27 18:20:52;;;;;;;;;;;5.30;84.10;;;;;;9166684;19;19926;-61
2023/01/27 18:23:59;;;;;;;;;;;5.30;84.20;;;;;;9170386;19;19919;-63
2023/01/27 18:27:09;;;;;;;;;;;5.20;84.10;;;;;;9171275;19;19927;-63
2023/01/27 18:30:17;;;;;;;;;;;5.20;84.00;;;;;;9170319;19;19918;-63
2023/01/27 18:33:21;;;;;;;;;;;5.20;84.10;;;;;;9171105;19;19927;-62
2023/01/27 18:36:32;;;;;;;;;;;5.20;84.00;;;;;;9171536;19;19923;-64
2023/01/27 18:39:36;;;;;;;;;;;5.20;84.00;;;;;;9170086;19;19926;-65
2023/01/27 18:42:44;;;;;;;;;;;5.20;84.00;;;;;;9171390;19;19922;-61
2023/01/27 18:45:49;;;;;;;;;;;5.20;84.10;;;;;;9173886;19;19919;-64
2023/01/27 18:48:58;;;;;;;;;;;5.20;84.10;;;;;;9171873;19;19918;-62
2023/01/27 18:52:02;;;;;;;;;;;5.20;84.00;;;;;;9170105;19;20365;-65
2023/01/27 18:55:18;;;;;;;;;;;5.20;84.00;;;;;;9163705;19;20155;-64
2023/01/27 18:58:23;;;;;;;;;;;5.20;84.00;;;;;;9165919;19;20717;-63
2023/01/27 19:01:29;;;;;;;;;;;5.20;84.00;;;;;;9165760;19;19922;-65
2023/01/27 19:04:32;;;;;;;;;;;5.20;84.00;;;;;;9170894;19;20616;-63
2023/01/27 19:07:38;;;;;;;;;;;5.20;83.90;;;;;;9167650;19;19918;-63
2023/01/27 19:10:42;;;;;;;;;;;5.30;84.00;;;;;;9168359;19;19927;-66